createdAt,value
2022-09-06T00:02:20.607Z,21.10
2022-09-06T00:04:51.643Z,21.10
2022-09-06T00:07:21.914Z,21.10
2022-09-06T00:09:52.989Z,21.10
2022-09-06T00:12:22.833Z,21.10
2022-09-06T00:14:52.141Z,21.10
2022-09-06T00:17:22.426Z,21.10
2022-09-06T00:19:53.837Z,21.10
2022-09-06T00:22:22.523Z,21.10
2022-09-06T00:24:53.507Z,21.10
2022-09-06T00:27:24.649Z,21.10
2022-09-06T00:29:56.093Z,21.10
2022-09-06T00:32:25.862Z,21.10
2022-09-06T00:34:53.377Z,21.10
2022-09-06T00:37:24.353Z,21.00
2022-09-06T00:39:53.923Z,21.00
2022-09-06T00:42:23.698Z,21.00
2022-09-06T00:44:54.173Z,20.90
2022-09-06T00:47:22.972Z,20.90
2022-09-06T00:49:58.399Z,20.90
2022-09-06T00:55:13.492Z,20.80
2022-09-06T00:57:43.895Z,20.80
2022-09-06T01:00:13.716Z,20.80
2022-09-06T01:02:50.912Z,20.70
2022-09-06T01:05:21.386Z,20.80
2022-09-06T01:08:10.840Z,20.80
2022-09-06T01:11:00.087Z,20.70
2022-09-06T01:14:06.314Z,20.60
2022-09-06T01:16:52.071Z,20.60
2022-09-06T01:19:53.049Z,20.60
2022-09-06T01:23:00.717Z,20.60
2022-09-06T01:25:53.861Z,20.70
2022-09-06T01:28:58.107Z,20.60
2022-09-06T01:31:48.419Z,20.50
2022-09-06T01:34:32.181Z,20.40
2022-09-06T01:37:18.696Z,20.30
2022-09-06T01:39:49.585Z,20.30
2022-09-06T01:42:30.216Z,20.20
2022-09-06T01:45:03.824Z,20.20
2022-09-06T01:47:54.186Z,20.10
2022-09-06T01:50:42.467Z,20.10
2022-09-06T01:53:30.669Z,20.10
2022-09-06T01:56:37.437Z,20.10
2022-09-06T01:59:17.337Z,20.20
2022-09-06T02:02:01.742Z,20.20
2022-09-06T02:05:01.621Z,20.20
2022-09-06T02:07:36.635Z,20.20
2022-09-06T02:10:53.925Z,20.20
2022-09-06T02:13:27.359Z,20.20
2022-09-06T02:16:16.278Z,20.20
2022-09-06T02:19:05.745Z,20.10
2022-09-06T02:21:39.941Z,20.00
2022-09-06T02:24:23.137Z,20.10
2022-09-06T02:26:54.544Z,20.10
2022-09-06T02:29:27.283Z,20.10
2022-09-06T02:32:12.873Z,20.10
2022-09-06T02:34:45.245Z,20.00
2022-09-06T02:37:16.545Z,19.90
2022-09-06T02:39:45.610Z,20.00
2022-09-06T02:42:20.802Z,19.80
2022-09-06T02:44:51.864Z,19.80
2022-09-06T02:47:20.470Z,19.70
2022-09-06T02:49:50.522Z,19.80
2022-09-06T02:52:19.584Z,19.80
2022-09-06T02:54:52.281Z,19.90
2022-09-06T02:57:22.318Z,19.90
2022-09-06T02:59:50.496Z,19.90
2022-09-06T03:02:18.396Z,19.90
2022-09-06T03:04:49.969Z,20.00
2022-09-06T03:07:22.693Z,20.00
2022-09-06T03:09:50.526Z,19.90
2022-09-06T03:12:20.780Z,19.90
2022-09-06T03:14:54.857Z,19.90
2022-09-06T03:17:25.496Z,19.80
2022-09-06T03:19:54.918Z,19.80
2022-09-06T03:22:23.632Z,19.80
2022-09-06T03:24:53.769Z,19.80
2022-09-06T03:27:26.229Z,19.70
2022-09-06T03:29:59.508Z,19.70
2022-09-06T03:32:29.714Z,19.70
2022-09-06T03:35:03.656Z,19.60
2022-09-06T03:37:31.130Z,19.60
2022-09-06T03:40:07.485Z,19.50
2022-09-06T03:42:37.965Z,19.40
2022-09-06T03:45:09.615Z,19.30
2022-09-06T03:47:37.770Z,19.30
2022-09-06T03:50:09.044Z,19.30
2022-09-06T03:52:38.694Z,19.40
2022-09-06T03:55:08.501Z,19.40
2022-09-06T03:57:39.531Z,19.40
2022-09-06T04:00:12.550Z,19.30
2022-09-06T04:02:43.066Z,19.40
2022-09-06T04:05:16.548Z,19.30
2022-09-06T04:07:47.322Z,19.40
2022-09-06T04:10:17.191Z,19.40
2022-09-06T04:12:45.613Z,19.40
2022-09-06T04:15:17.136Z,19.40
2022-09-06T04:17:46.366Z,19.40
2022-09-06T04:20:15.748Z,19.40
2022-09-06T04:22:45.334Z,19.40
2022-09-06T04:25:18.616Z,19.40
2022-09-06T04:27:46.637Z,19.50
2022-09-06T04:30:19.802Z,19.50
2022-09-06T04:32:50.994Z,19.50
2022-09-06T04:35:21.065Z,19.50
2022-09-06T04:37:50.612Z,19.50
2022-09-06T04:40:20.965Z,19.60
2022-09-06T04:42:52.241Z,19.60
2022-09-06T04:45:23.972Z,19.60
2022-09-06T04:47:51.765Z,19.70
2022-09-06T04:50:22.717Z,19.70
2022-09-06T04:52:51.727Z,19.70
2022-09-06T04:55:24.123Z,19.70
2022-09-06T04:57:54.301Z,19.80
2022-09-06T05:00:22.675Z,19.80
2022-09-06T05:02:53.217Z,19.90
2022-09-06T05:05:23.251Z,19.90
2022-09-06T05:08:00.101Z,19.90
2022-09-06T05:10:28.664Z,20.00
2022-09-06T05:12:58.013Z,20.10
2022-09-06T05:15:29.524Z,20.10
2022-09-06T05:18:08.887Z,20.20
2022-09-06T05:20:37.946Z,20.10
2022-09-06T05:23:07.737Z,20.10
2022-09-06T05:25:39.798Z,20.00
2022-09-06T05:28:08.996Z,20.10
2022-09-06T05:30:38.155Z,20.10
2022-09-06T05:33:08.872Z,20.20
2022-09-06T05:35:38.189Z,20.30
2022-09-06T05:38:09.321Z,20.30
2022-09-06T05:40:38.747Z,20.30
2022-09-06T05:43:08.547Z,20.30
2022-09-06T05:45:42.223Z,20.30
2022-09-06T05:48:09.676Z,20.30
2022-09-06T05:50:37.738Z,20.30
2022-09-06T05:53:11.322Z,20.30
2022-09-06T05:55:42.736Z,20.40
2022-09-06T05:58:14.050Z,20.40
2022-09-06T06:00:44.280Z,20.40
2022-09-06T06:03:14.030Z,20.40
2022-09-06T06:05:49.786Z,20.40
2022-09-06T06:08:21.115Z,20.40
2022-09-06T06:10:49.765Z,20.50
2022-09-06T06:13:19.202Z,20.50
2022-09-06T06:15:47.013Z,20.50
2022-09-06T06:18:20.067Z,20.50
2022-09-06T06:20:51.742Z,20.50
2022-09-06T06:23:25.207Z,20.60
2022-09-06T06:25:55.075Z,20.60
2022-09-06T06:28:28.220Z,20.60
2022-09-06T06:30:59.118Z,20.60
2022-09-06T06:33:29.220Z,20.70
2022-09-06T06:36:30.057Z,20.70
2022-09-06T06:39:03.119Z,20.80
2022-09-06T06:41:35.147Z,20.80
2022-09-06T06:44:06.782Z,20.80
2022-09-06T06:46:44.012Z,20.90
2022-09-06T06:49:13.334Z,21.00
2022-09-06T06:51:44.349Z,21.00
2022-09-06T06:54:13.894Z,21.00
2022-09-06T06:56:45.822Z,21.00
2022-09-06T06:59:16.542Z,21.10
2022-09-06T07:01:50.386Z,21.10
2022-09-06T07:04:19.064Z,21.20
2022-09-06T07:12:37.286Z,21.30
2022-09-06T07:15:15.031Z,21.40
2022-09-06T07:17:47.928Z,21.40
2022-09-06T07:20:19.010Z,21.40
2022-09-06T07:22:49.136Z,21.40
2022-09-06T07:25:21.429Z,21.40
2022-09-06T07:28:08.452Z,21.50
2022-09-06T07:30:37.955Z,21.50
2022-09-06T07:33:11.276Z,21.60
2022-09-06T07:35:41.938Z,21.60
2022-09-06T07:38:10.844Z,21.60
2022-09-06T07:40:41.908Z,21.70
2022-09-06T07:43:10.503Z,21.70
2022-09-06T07:45:37.932Z,21.60
2022-09-06T07:48:08.393Z,21.70
2022-09-06T07:50:51.887Z,21.80
2022-09-06T07:53:30.550Z,21.80
2022-09-06T07:56:01.038Z,21.90
2022-09-06T07:58:31.492Z,21.90
2022-09-06T08:01:36.525Z,22.00
2022-09-06T08:04:17.118Z,22.00
2022-09-06T08:09:42.988Z,22.10
2022-09-06T08:12:10.533Z,22.20
2022-09-06T08:14:38.151Z,22.30
2022-09-06T08:17:09.304Z,22.40
2022-09-06T08:19:39.361Z,22.40
2022-09-06T08:22:09.031Z,22.40
2022-09-06T08:24:41.665Z,22.30
2022-09-06T08:27:11.533Z,22.40
2022-09-06T08:29:40.182Z,22.40
2022-09-06T08:32:07.903Z,22.40
2022-09-06T08:34:44.348Z,22.50
2022-09-06T08:37:12.428Z,22.50
2022-09-06T08:39:40.501Z,22.50
2022-09-06T08:42:12.971Z,22.60
2022-09-06T08:44:57.822Z,22.60
2022-09-06T08:47:30.902Z,22.70
2022-09-06T08:50:08.559Z,22.70
2022-09-06T08:53:16.762Z,22.80
2022-09-06T08:56:13.294Z,22.80
2022-09-06T08:59:09.287Z,22.90
2022-09-06T09:02:16.061Z,22.90
2022-09-06T09:05:01.477Z,23.00
2022-09-06T09:07:51.835Z,23.00
2022-09-06T09:10:27.979Z,23.10
2022-09-06T09:13:02.941Z,23.20
2022-09-06T09:15:40.437Z,23.20
2022-09-06T09:18:11.311Z,23.30
2022-09-06T09:20:42.104Z,23.30
2022-09-06T09:23:13.964Z,23.30
2022-09-06T09:25:45.559Z,23.40
2022-09-06T09:28:21.795Z,23.50
2022-09-06T09:33:37.313Z,23.50
2022-09-06T09:36:14.063Z,23.60
2022-09-06T09:38:52.515Z,23.60
2022-09-06T09:41:40.436Z,23.70
2022-09-06T09:44:19.283Z,23.80
2022-09-06T09:46:50.050Z,23.80
2022-09-06T09:49:26.225Z,23.80
2022-09-06T09:52:10.581Z,23.80
2022-09-06T09:54:45.086Z,23.80
2022-09-06T09:57:19.750Z,23.80
2022-09-06T10:00:00.315Z,23.80
2022-09-06T10:02:30.423Z,23.80
2022-09-06T10:05:26.964Z,23.80
2022-09-06T10:07:57.366Z,23.80
2022-09-06T10:10:29.357Z,23.70
2022-09-06T10:13:32.719Z,23.70
2022-09-06T10:16:06.246Z,23.70
2022-09-06T10:18:37.491Z,23.80
2022-09-06T10:21:11.929Z,23.80
2022-09-06T10:24:29.645Z,23.90
2022-09-06T10:27:03.464Z,23.90
2022-09-06T10:30:06.888Z,24.00
2022-09-06T10:33:21.203Z,24.10
2022-09-06T10:35:51.533Z,24.10
2022-09-06T10:38:30.572Z,24.10
2022-09-06T10:41:37.430Z,24.20
2022-09-06T10:44:33.990Z,24.20
2022-09-06T10:47:35.040Z,24.30
2022-09-06T10:50:08.131Z,24.30
2022-09-06T10:52:45.522Z,24.40
2022-09-06T10:55:19.006Z,24.40
2022-09-06T11:00:53.319Z,24.50
2022-09-06T11:04:00.366Z,24.60
2022-09-06T11:06:49.877Z,24.60
2022-09-06T11:09:38.394Z,24.70
2022-09-06T11:12:42.157Z,24.90
2022-09-06T11:15:17.148Z,25.00
2022-09-06T11:17:52.461Z,25.00
2022-09-06T11:20:37.660Z,25.00
2022-09-06T11:23:45.263Z,25.00
2022-09-06T11:26:41.107Z,25.10
2022-09-06T11:29:33.425Z,25.20
2022-09-06T11:32:17.707Z,25.20
2022-09-06T11:35:04.278Z,25.30
2022-09-06T11:37:44.944Z,25.40
2022-09-06T11:40:38.584Z,25.40
2022-09-06T11:43:13.246Z,25.40
2022-09-06T11:46:13.484Z,25.50
2022-09-06T11:49:09.882Z,25.60
2022-09-06T11:51:44.458Z,25.80
2022-09-06T11:54:55.929Z,25.90
2022-09-06T11:57:27.687Z,26.00
2022-09-06T12:00:15.258Z,26.00
2022-09-06T12:02:48.121Z,26.10
2022-09-06T12:05:27.720Z,26.20
2022-09-06T12:08:19.495Z,26.20
2022-09-06T12:11:04.238Z,26.10
2022-09-06T12:13:56.564Z,26.00
2022-09-06T12:16:49.356Z,26.00
2022-09-06T12:19:45.774Z,26.20
2022-09-06T12:23:00.788Z,26.50
2022-09-06T12:25:39.540Z,26.70
2022-09-06T12:28:23.448Z,26.90
2022-09-06T12:30:53.404Z,27.00
2022-09-06T12:33:39.277Z,27.00
2022-09-06T12:36:33.844Z,27.20
2022-09-06T12:39:16.845Z,27.30
2022-09-06T12:41:50.540Z,27.40
2022-09-06T12:44:24.603Z,27.60
2022-09-06T12:46:55.171Z,27.60
2022-09-06T12:49:27.506Z,27.60
2022-09-06T12:52:15.450Z,27.70
2022-09-06T12:54:49.817Z,28.30
2022-09-06T12:57:27.025Z,29.00
2022-09-06T12:59:59.299Z,29.70
2022-09-06T13:02:46.423Z,30.70
2022-09-06T13:05:17.176Z,31.80
2022-09-06T13:07:50.216Z,32.20
2022-09-06T13:10:46.943Z,31.30
2022-09-06T13:13:29.934Z,30.80
2022-09-06T13:16:00.923Z,31.80
2022-09-06T13:18:40.172Z,34.20
2022-09-06T13:21:16.577Z,36.10
2022-09-06T13:24:10.682Z,37.40
2022-09-06T13:26:42.498Z,38.60
2022-09-06T13:29:34.142Z,39.50
2022-09-06T13:32:08.642Z,39.90
2022-09-06T13:34:36.754Z,40.30
2022-09-06T13:37:09.624Z,41.60
2022-09-06T13:39:46.728Z,42.60
2022-09-06T13:42:40.364Z,43.30
2022-09-06T13:45:33.802Z,43.70
2022-09-06T13:48:26.207Z,44.30
2022-09-06T13:53:37.704Z,45.20
2022-09-06T13:56:08.951Z,45.90
2022-09-06T13:58:40.091Z,46.20
2022-09-06T14:01:12.748Z,46.50
2022-09-06T14:03:42.477Z,45.80
2022-09-06T14:06:15.076Z,46.00
2022-09-06T14:11:37.524Z,45.60
2022-09-06T14:14:10.133Z,44.00
2022-09-06T14:16:43.105Z,43.20
2022-09-06T14:19:16.274Z,42.80
2022-09-06T14:21:46.213Z,40.90
2022-09-06T14:24:17.295Z,40.90
2022-09-06T14:26:47.522Z,40.40
2022-09-06T14:29:16.411Z,39.60
2022-09-06T14:31:47.811Z,39.80
2022-09-06T14:34:19.445Z,40.30
2022-09-06T14:36:50.919Z,40.00
2022-09-06T14:39:24.186Z,39.70
2022-09-06T14:41:54.489Z,39.70
2022-09-06T14:44:22.852Z,40.00
2022-09-06T14:46:55.483Z,40.30
2022-09-06T14:49:27.724Z,40.70
2022-09-06T14:51:59.392Z,39.40
2022-09-06T14:54:29.585Z,39.90
2022-09-06T14:57:00.698Z,40.20
2022-09-06T14:59:30.997Z,40.60
2022-09-06T15:02:00.756Z,40.60
2022-09-06T15:04:28.976Z,40.20
2022-09-06T15:06:56.260Z,40.00
2022-09-06T15:09:29.178Z,40.10
2022-09-06T15:11:59.631Z,39.60
2022-09-06T15:14:30.540Z,39.40
2022-09-06T15:17:02.942Z,40.00
2022-09-06T15:19:44.018Z,40.50
2022-09-06T15:22:14.144Z,40.50
2022-09-06T15:24:45.215Z,40.30
2022-09-06T15:27:18.027Z,39.70
2022-09-06T15:29:49.256Z,38.90
2022-09-06T15:32:21.838Z,37.60
2022-09-06T15:34:50.078Z,36.60
2022-09-06T15:37:18.661Z,34.40
2022-09-06T15:39:50.791Z,33.40
2022-09-06T15:42:21.544Z,32.80
2022-09-06T15:44:57.009Z,32.60
2022-09-06T15:47:24.399Z,32.20
2022-09-06T15:49:58.149Z,32.00
2022-09-06T15:52:28.757Z,32.10
2022-09-06T15:55:16.859Z,31.70
2022-09-06T15:57:51.028Z,31.90
2022-09-06T16:00:24.578Z,32.00
2022-09-06T16:02:57.061Z,31.90
2022-09-06T16:08:16.533Z,31.90
2022-09-06T16:10:49.117Z,31.80
2022-09-06T16:13:19.248Z,31.70
2022-09-06T16:16:15.233Z,31.50
2022-09-06T16:18:49.889Z,31.40
2022-09-06T16:21:26.057Z,31.20
2022-09-06T16:24:02.802Z,31.10
2022-09-06T16:26:37.915Z,31.00
2022-09-06T16:29:09.616Z,30.80
2022-09-06T16:31:40.767Z,30.70
2022-09-06T16:34:14.591Z,30.50
2022-09-06T16:36:44.402Z,30.40
2022-09-06T16:39:15.148Z,30.20
2022-09-06T16:41:46.646Z,30.10
2022-09-06T16:44:20.759Z,30.00
2022-09-06T16:46:53.136Z,29.80
2022-09-06T16:49:23.174Z,29.70
2022-09-06T16:51:55.665Z,29.60
2022-09-06T16:54:27.442Z,29.40
2022-09-06T16:57:04.376Z,29.30
2022-09-06T16:59:35.960Z,29.10
2022-09-06T17:02:09.352Z,28.90
2022-09-06T17:04:44.577Z,28.70
2022-09-06T17:07:18.348Z,28.60
2022-09-06T17:09:51.162Z,28.50
2022-09-06T17:12:20.652Z,28.40
2022-09-06T17:14:52.306Z,28.20
2022-09-06T17:17:21.813Z,28.10
2022-09-06T17:19:51.941Z,28.00
2022-09-06T17:22:22.048Z,27.90
2022-09-06T17:24:53.512Z,27.70
2022-09-06T17:27:21.618Z,27.60
2022-09-06T17:29:51.741Z,27.50
2022-09-06T17:32:22.968Z,27.40
2022-09-06T17:34:52.684Z,27.40
2022-09-06T17:37:23.211Z,27.30
2022-09-06T17:39:55.265Z,27.20
2022-09-06T17:42:26.573Z,27.10
2022-09-06T17:44:59.443Z,27.00
2022-09-06T17:47:33.920Z,26.90
2022-09-06T17:50:03.617Z,26.80
2022-09-06T17:52:40.251Z,26.80
2022-09-06T17:55:10.361Z,26.70
2022-09-06T17:57:42.726Z,26.60
2022-09-06T18:00:16.679Z,26.60
2022-09-06T18:02:45.618Z,26.60
2022-09-06T18:05:20.173Z,26.50
2022-09-06T18:07:50.233Z,26.50
2022-09-06T18:10:19.278Z,26.40
2022-09-06T18:12:48.896Z,26.40
2022-09-06T18:15:20.193Z,26.30
2022-09-06T18:17:52.384Z,26.30
2022-09-06T18:20:21.886Z,26.30
2022-09-06T18:22:52.544Z,26.20
2022-09-06T18:25:24.481Z,26.20
2022-09-06T18:27:54.028Z,26.10
2022-09-06T18:30:23.275Z,26.00
2022-09-06T18:32:51.102Z,25.90
2022-09-06T18:35:24.081Z,25.90
2022-09-06T18:37:52.660Z,25.90
2022-09-06T18:40:20.646Z,25.80
2022-09-06T18:42:52.731Z,25.70
2022-09-06T18:45:23.289Z,25.70
2022-09-06T18:47:53.871Z,25.70
2022-09-06T18:50:25.045Z,25.70
2022-09-06T18:52:54.963Z,25.60
2022-09-06T18:55:28.254Z,25.60
2022-09-06T18:57:59.751Z,25.60
2022-09-06T19:00:33.920Z,25.50
2022-09-06T19:03:07.793Z,25.50
2022-09-06T19:05:40.765Z,25.40
2022-09-06T19:08:12.716Z,25.40
2022-09-06T19:10:42.124Z,25.30
2022-09-06T19:13:15.255Z,25.20
2022-09-06T19:15:47.561Z,25.20
2022-09-06T19:18:18.339Z,25.10
2022-09-06T19:21:04.806Z,25.10
2022-09-06T19:23:39.558Z,25.10
2022-09-06T19:26:29.028Z,25.10
2022-09-06T19:29:02.853Z,25.10
2022-09-06T19:31:35.905Z,25.00
2022-09-06T19:34:12.406Z,25.00
2022-09-06T19:36:47.602Z,25.00
2022-09-06T19:39:19.350Z,25.00
2022-09-06T19:41:51.393Z,25.00
2022-09-06T19:44:22.244Z,24.90
2022-09-06T19:46:54.554Z,24.90
2022-09-06T19:49:25.191Z,24.80
2022-09-06T19:51:57.706Z,24.80
2022-09-06T19:54:31.153Z,24.80
2022-09-06T19:57:03.242Z,24.80
2022-09-06T19:59:37.163Z,24.80
2022-09-06T20:02:07.507Z,24.70
2022-09-06T20:04:38.288Z,24.70
2022-09-06T20:07:10.080Z,24.80
2022-09-06T20:09:53.209Z,24.80
2022-09-06T20:12:28.187Z,24.80
2022-09-06T20:15:02.481Z,24.80
2022-09-06T20:17:35.429Z,24.80
2022-09-06T20:20:06.885Z,24.70
2022-09-06T20:22:38.164Z,24.70
2022-09-06T20:25:08.966Z,24.70
2022-09-06T20:27:48.160Z,24.70
2022-09-06T20:30:20.234Z,24.70
2022-09-06T20:32:50.104Z,24.60
2022-09-06T20:35:19.373Z,24.60
2022-09-06T20:37:51.069Z,24.60
2022-09-06T20:40:21.329Z,24.50
2022-09-06T20:42:52.206Z,24.50
2022-09-06T20:45:27.801Z,24.40
2022-09-06T20:47:58.005Z,24.40
2022-09-06T20:50:29.881Z,24.40
2022-09-06T20:53:01.412Z,24.30
2022-09-06T20:55:29.060Z,24.30
2022-09-06T20:57:58.515Z,24.30
2022-09-06T21:00:29.254Z,24.20
2022-09-06T21:02:57.990Z,24.20
2022-09-06T21:05:28.308Z,24.20
2022-09-06T21:07:58.056Z,24.20
2022-09-06T21:10:29.317Z,24.20
2022-09-06T21:13:02.897Z,24.20
2022-09-06T21:15:36.563Z,24.20
2022-09-06T21:18:08.035Z,24.20
2022-09-06T21:20:39.630Z,24.10
2022-09-06T21:23:11.478Z,24.10
2022-09-06T21:25:42.848Z,24.10
2022-09-06T21:28:13.230Z,24.10
2022-09-06T21:30:44.411Z,24.10
2022-09-06T21:33:16.727Z,24.10
2022-09-06T21:35:49.510Z,24.00
2022-09-06T21:38:22.193Z,24.00
2022-09-06T21:40:51.118Z,23.90
2022-09-06T21:43:22.667Z,23.80
2022-09-06T21:45:52.170Z,23.80
2022-09-06T21:48:22.307Z,23.80
2022-09-06T21:50:50.850Z,23.80
2022-09-06T21:53:24.963Z,23.80
2022-09-06T21:56:06.525Z,23.80
2022-09-06T21:58:36.533Z,23.80
2022-09-06T22:01:05.282Z,23.70
2022-09-06T22:03:43.025Z,23.70
2022-09-06T22:06:23.670Z,23.70
2022-09-06T22:08:54.713Z,23.70
2022-09-06T22:11:34.152Z,23.60
2022-09-06T22:14:05.469Z,23.50
2022-09-06T22:16:42.000Z,23.50
2022-09-06T22:19:12.120Z,23.60
2022-09-06T22:21:40.163Z,23.50
2022-09-06T22:24:13.249Z,23.50
2022-09-06T22:26:45.592Z,23.50
2022-09-06T22:29:20.454Z,23.50
2022-09-06T22:31:50.426Z,23.40
2022-09-06T22:34:20.272Z,23.40
2022-09-06T22:36:49.737Z,23.40
2022-09-06T22:39:19.315Z,23.40
2022-09-06T22:41:50.569Z,23.40
2022-09-06T22:44:19.429Z,23.40
2022-09-06T22:46:49.796Z,23.30
2022-09-06T22:49:20.223Z,23.30
2022-09-06T22:51:50.738Z,23.30
2022-09-06T22:54:22.577Z,23.30
2022-09-06T22:56:54.486Z,23.30
2022-09-06T22:59:21.996Z,23.30
2022-09-06T23:01:53.902Z,23.30
2022-09-06T23:04:23.452Z,23.20
2022-09-06T23:06:51.271Z,23.20
2022-09-06T23:09:25.371Z,23.10
2022-09-06T23:11:59.473Z,23.10
2022-09-06T23:14:33.023Z,23.10
2022-09-06T23:17:04.808Z,23.10
2022-09-06T23:19:32.315Z,23.10
2022-09-06T23:24:45.136Z,23.00
2022-09-06T23:27:13.140Z,23.00
2022-09-06T23:29:47.039Z,23.00
2022-09-06T23:32:17.490Z,22.90
2022-09-06T23:34:45.037Z,22.90
2022-09-06T23:37:14.730Z,22.90
2022-09-06T23:39:42.025Z,22.90
2022-09-06T23:42:12.536Z,22.80
2022-09-06T23:44:41.360Z,22.80
2022-09-06T23:47:09.076Z,22.80
2022-09-06T23:49:37.129Z,22.80
2022-09-06T23:52:07.327Z,22.80
2022-09-06T23:54:39.417Z,22.80
2022-09-06T23:57:12.458Z,22.70
2022-09-06T23:59:43.435Z,22.70
